sensor_id;sensor_type;location;lat;lon;timestamp;P1;durP1;ratioP1;P2;durP2;ratioP2
64293;SDS011;50636;45.596;5.258;2022-11-18T00:02:05;5.22;;;1.25;;
64293;SDS011;50636;45.596;5.258;2022-11-18T00:04:31;5.78;;;1.10;;
64293;SDS011;50636;45.596;5.258;2022-11-18T00:06:57;4.57;;;1.45;;
64293;SDS011;50636;45.596;5.258;2022-11-18T00:09:22;7.75;;;1.67;;
64293;SDS011;50636;45.596;5.258;2022-11-18T00:11:48;3.60;;;1.52;;
64293;SDS011;50636;45.596;5.258;2022-11-18T00:14:32;4.93;;;1.75;;
64293;SDS011;50636;45.596;5.258;2022-11-18T00:16:58;4.07;;;1.10;;
64293;SDS011;50636;45.596;5.258;2022-11-18T00:19:27;2.28;;;1.00;;
64293;SDS011;50636;45.596;5.258;2022-11-18T00:21:54;4.22;;;0.93;;
64293;SDS011;50636;45.596;5.258;2022-11-18T00:24:20;4.45;;;1.08;;
64293;SDS011;50636;45.596;5.258;2022-11-18T00:26:46;5.60;;;1.13;;
64293;SDS011;50636;45.596;5.258;2022-11-18T00:29:12;5.30;;;1.15;;
64293;SDS011;50636;45.596;5.258;2022-11-18T00:31:38;3.83;;;1.38;;
64293;SDS011;50636;45.596;5.258;2022-11-18T00:34:04;3.65;;;0.80;;
64293;SDS011;50636;45.596;5.258;2022-11-18T00:36:31;1.60;;;0.77;;
64293;SDS011;50636;45.596;5.258;2022-11-18T00:38:57;8.32;;;1.48;;
64293;SDS011;50636;45.596;5.258;2022-11-18T00:41:23;7.28;;;1.50;;
64293;SDS011;50636;45.596;5.258;2022-11-18T00:43:49;4.30;;;0.90;;
64293;SDS011;50636;45.596;5.258;2022-11-18T00:46:14;3.13;;;0.68;;
64293;SDS011;50636;45.596;5.258;2022-11-18T00:48:40;2.33;;;0.60;;
64293;SDS011;50636;45.596;5.258;2022-11-18T00:51:10;4.38;;;0.80;;
64293;SDS011;50636;45.596;5.258;2022-11-18T00:53:41;3.30;;;0.65;;
64293;SDS011;50636;45.596;5.258;2022-11-18T00:56:07;4.60;;;1.00;;
64293;SDS011;50636;45.596;5.258;2022-11-18T00:58:33;2.00;;;0.90;;
64293;SDS011;50636;45.596;5.258;2022-11-18T01:00:59;5.05;;;0.60;;
64293;SDS011;50636;45.596;5.258;2022-11-18T01:03:26;3.22;;;1.00;;
64293;SDS011;50636;45.596;5.258;2022-11-18T01:05:53;4.57;;;1.05;;
64293;SDS011;50636;45.596;5.258;2022-11-18T01:08:19;4.45;;;0.90;;
64293;SDS011;50636;45.596;5.258;2022-11-18T01:10:46;5.30;;;1.00;;
64293;SDS011;50636;45.596;5.258;2022-11-18T01:13:13;3.60;;;1.25;;
64293;SDS011;50636;45.596;5.258;2022-11-18T01:15:51;4.13;;;0.90;;
64293;SDS011;50636;45.596;5.258;2022-11-18T01:18:19;6.45;;;1.00;;
64293;SDS011;50636;45.596;5.258;2022-11-18T01:20:48;6.15;;;1.63;;
64293;SDS011;50636;45.596;5.258;2022-11-18T01:23:13;4.07;;;1.00;;
64293;SDS011;50636;45.596;5.258;2022-11-18T01:25:40;7.75;;;1.15;;
64293;SDS011;50636;45.596;5.258;2022-11-18T01:28:08;7.03;;;1.45;;
64293;SDS011;50636;45.596;5.258;2022-11-18T01:30:35;5.22;;;0.95;;
64293;SDS011;50636;45.596;5.258;2022-11-18T01:33:02;9.38;;;1.13;;
64293;SDS011;50636;45.596;5.258;2022-11-18T01:35:32;3.40;;;0.93;;
64293;SDS011;50636;45.596;5.258;2022-11-18T01:37:59;11.77;;;1.30;;
64293;SDS011;50636;45.596;5.258;2022-11-18T01:40:26;1.60;;;0.68;;
64293;SDS011;50636;45.596;5.258;2022-11-18T01:42:53;5.90;;;0.95;;
64293;SDS011;50636;45.596;5.258;2022-11-18T01:48:37;8.52;;;1.25;;
64293;SDS011;50636;45.596;5.258;2022-11-18T01:51:03;2.22;;;0.60;;
64293;SDS011;50636;45.596;5.258;2022-11-18T01:53:35;2.58;;;0.75;;
64293;SDS011;50636;45.596;5.258;2022-11-18T01:56:09;3.40;;;1.00;;
64293;SDS011;50636;45.596;5.258;2022-11-18T01:58:40;3.72;;;1.00;;
64293;SDS011;50636;45.596;5.258;2022-11-18T02:01:10;4.53;;;0.70;;
64293;SDS011;50636;45.596;5.258;2022-11-18T02:03:37;8.98;;;1.30;;
64293;SDS011;50636;45.596;5.258;2022-11-18T02:06:03;7.00;;;1.40;;
64293;SDS011;50636;45.596;5.258;2022-11-18T02:08:30;1.42;;;0.70;;
64293;SDS011;50636;45.596;5.258;2022-11-18T02:11:02;4.28;;;1.00;;
64293;SDS011;50636;45.596;5.258;2022-11-18T02:13:28;6.97;;;1.40;;
64293;SDS011;50636;45.596;5.258;2022-11-18T02:16:04;7.55;;;0.80;;
64293;SDS011;50636;45.596;5.258;2022-11-18T02:27:12;5.35;;;0.90;;
64293;SDS011;50636;45.596;5.258;2022-11-18T02:29:46;5.63;;;1.70;;
64293;SDS011;50636;45.596;5.258;2022-11-18T02:32:16;2.35;;;0.68;;
64293;SDS011;50636;45.596;5.258;2022-11-18T02:34:59;1.65;;;0.57;;
64293;SDS011;50636;45.596;5.258;2022-11-18T02:40:28;5.32;;;1.40;;
64293;SDS011;50636;45.596;5.258;2022-11-18T02:43:29;7.28;;;1.02;;
64293;SDS011;50636;45.596;5.258;2022-11-18T02:45:54;8.10;;;1.33;;
64293;SDS011;50636;45.596;5.258;2022-11-18T02:48:25;5.40;;;1.20;;
64293;SDS011;50636;45.596;5.258;2022-11-18T02:50:53;7.40;;;1.33;;
64293;SDS011;50636;45.596;5.258;2022-11-18T02:53:20;2.97;;;0.73;;
64293;SDS011;50636;45.596;5.258;2022-11-18T02:55:47;4.90;;;1.08;;
64293;SDS011;50636;45.596;5.258;2022-11-18T02:58:15;2.95;;;0.63;;
64293;SDS011;50636;45.596;5.258;2022-11-18T03:00:43;2.42;;;0.80;;
64293;SDS011;50636;45.596;5.258;2022-11-18T03:03:25;2.20;;;0.70;;
64293;SDS011;50636;45.596;5.258;2022-11-18T03:06:04;7.32;;;1.38;;
64293;SDS011;50636;45.596;5.258;2022-11-18T03:08:34;8.15;;;0.90;;
64293;SDS011;50636;45.596;5.258;2022-11-18T03:11:14;3.60;;;1.08;;
64293;SDS011;50636;45.596;5.258;2022-11-18T03:13:51;10.02;;;1.42;;
64293;SDS011;50636;45.596;5.258;2022-11-18T03:16:37;1.85;;;0.55;;
64293;SDS011;50636;45.596;5.258;2022-11-18T03:22:06;6.35;;;0.85;;
64293;SDS011;50636;45.596;5.258;2022-11-18T03:24:35;3.40;;;0.80;;
64293;SDS011;50636;45.596;5.258;2022-11-18T03:27:12;1.80;;;0.65;;
64293;SDS011;50636;45.596;5.258;2022-11-18T03:29:48;8.02;;;1.83;;
64293;SDS011;50636;45.596;5.258;2022-11-18T03:32:25;16.08;;;7.15;;
64293;SDS011;50636;45.596;5.258;2022-11-18T03:35:01;16.88;;;15.07;;
64293;SDS011;50636;45.596;5.258;2022-11-18T03:37:32;12.75;;;11.45;;
64293;SDS011;50636;45.596;5.258;2022-11-18T03:40:02;9.55;;;7.50;;
64293;SDS011;50636;45.596;5.258;2022-11-18T03:42:37;3.65;;;3.05;;
64293;SDS011;50636;45.596;5.258;2022-11-18T03:45:41;3.40;;;1.77;;
64293;SDS011;50636;45.596;5.258;2022-11-18T03:51:01;2.92;;;1.25;;
64293;SDS011;50636;45.596;5.258;2022-11-18T03:53:33;1.33;;;1.10;;
64293;SDS011;50636;45.596;5.258;2022-11-18T03:56:17;1.00;;;0.75;;
64293;SDS011;50636;45.596;5.258;2022-11-18T03:58:53;1.23;;;0.63;;
64293;SDS011;50636;45.596;5.258;2022-11-18T04:01:27;4.00;;;1.40;;
64293;SDS011;50636;45.596;5.258;2022-11-18T04:03:58;3.70;;;1.17;;
64293;SDS011;50636;45.596;5.258;2022-11-18T04:06:28;10.77;;;1.10;;
64293;SDS011;50636;45.596;5.258;2022-11-18T04:09:03;4.28;;;1.35;;
64293;SDS011;50636;45.596;5.258;2022-11-18T04:11:40;5.53;;;1.20;;
64293;SDS011;50636;45.596;5.258;2022-11-18T04:14:32;3.78;;;0.85;;
64293;SDS011;50636;45.596;5.258;2022-11-18T04:17:03;3.65;;;0.70;;
64293;SDS011;50636;45.596;5.258;2022-11-18T04:19:32;4.97;;;0.90;;
64293;SDS011;50636;45.596;5.258;2022-11-18T04:21:58;6.00;;;0.85;;
64293;SDS011;50636;45.596;5.258;2022-11-18T04:24:24;6.57;;;1.05;;
64293;SDS011;50636;45.596;5.258;2022-11-18T04:26:49;10.43;;;5.65;;
64293;SDS011;50636;45.596;5.258;2022-11-18T04:29:15;5.78;;;1.63;;
64293;SDS011;50636;45.596;5.258;2022-11-18T04:31:40;2.92;;;0.75;;
64293;SDS011;50636;45.596;5.258;2022-11-18T04:34:06;3.05;;;0.50;;
64293;SDS011;50636;45.596;5.258;2022-11-18T04:36:32;4.15;;;0.73;;
64293;SDS011;50636;45.596;5.258;2022-11-18T04:38:57;5.07;;;0.85;;
64293;SDS011;50636;45.596;5.258;2022-11-18T04:41:23;6.10;;;0.98;;
64293;SDS011;50636;45.596;5.258;2022-11-18T04:44:08;2.50;;;0.55;;
64293;SDS011;50636;45.596;5.258;2022-11-18T04:46:39;4.55;;;1.08;;
64293;SDS011;50636;45.596;5.258;2022-11-18T04:49:09;4.22;;;0.90;;
64293;SDS011;50636;45.596;5.258;2022-11-18T04:51:37;4.55;;;0.57;;
64293;SDS011;50636;45.596;5.258;2022-11-18T04:54:03;4.28;;;0.57;;
64293;SDS011;50636;45.596;5.258;2022-11-18T04:56:29;4.22;;;0.88;;
64293;SDS011;50636;45.596;5.258;2022-11-18T04:58:57;2.88;;;0.90;;
64293;SDS011;50636;45.596;5.258;2022-11-18T05:01:24;6.05;;;1.40;;
64293;SDS011;50636;45.596;5.258;2022-11-18T05:03:50;3.92;;;1.40;;
64293;SDS011;50636;45.596;5.258;2022-11-18T05:06:15;4.97;;;1.10;;
64293;SDS011;50636;45.596;5.258;2022-11-18T05:08:41;3.58;;;0.65;;
64293;SDS011;50636;45.596;5.258;2022-11-18T05:11:07;1.75;;;0.47;;
64293;SDS011;50636;45.596;5.258;2022-11-18T05:13:55;10.32;;;1.85;;
64293;SDS011;50636;45.596;5.258;2022-11-18T05:16:20;5.50;;;0.80;;
64293;SDS011;50636;45.596;5.258;2022-11-18T05:18:46;2.70;;;0.60;;
64293;SDS011;50636;45.596;5.258;2022-11-18T05:21:11;3.65;;;0.88;;
64293;SDS011;50636;45.596;5.258;2022-11-18T05:23:37;6.45;;;1.67;;
64293;SDS011;50636;45.596;5.258;2022-11-18T05:26:06;3.25;;;0.90;;
64293;SDS011;50636;45.596;5.258;2022-11-18T05:28:34;3.13;;;1.30;;
64293;SDS011;50636;45.596;5.258;2022-11-18T05:31:05;2.08;;;0.88;;
64293;SDS011;50636;45.596;5.258;2022-11-18T05:33:36;2.13;;;0.50;;
64293;SDS011;50636;45.596;5.258;2022-11-18T05:36:03;7.00;;;1.08;;
64293;SDS011;50636;45.596;5.258;2022-11-18T05:38:30;3.65;;;0.90;;
64293;SDS011;50636;45.596;5.258;2022-11-18T05:40:56;7.43;;;1.00;;
64293;SDS011;50636;45.596;5.258;2022-11-18T05:43:22;4.18;;;0.77;;
64293;SDS011;50636;45.596;5.258;2022-11-18T05:45:49;9.55;;;1.77;;
64293;SDS011;50636;45.596;5.258;2022-11-18T05:48:15;4.45;;;1.40;;
64293;SDS011;50636;45.596;5.258;2022-11-18T05:50:41;4.70;;;1.38;;
64293;SDS011;50636;45.596;5.258;2022-11-18T05:53:14;3.10;;;1.20;;
64293;SDS011;50636;45.596;5.258;2022-11-18T05:58:11;2.92;;;1.05;;
64293;SDS011;50636;45.596;5.258;2022-11-18T06:00:37;6.53;;;1.10;;
64293;SDS011;50636;45.596;5.258;2022-11-18T06:03:03;4.00;;;0.90;;
64293;SDS011;50636;45.596;5.258;2022-11-18T06:05:37;1.97;;;0.90;;
64293;SDS011;50636;45.596;5.258;2022-11-18T06:08:03;4.30;;;0.82;;
64293;SDS011;50636;45.596;5.258;2022-11-18T06:10:30;4.45;;;0.82;;
64293;SDS011;50636;45.596;5.258;2022-11-18T06:13:00;2.50;;;1.33;;
64293;SDS011;50636;45.596;5.258;2022-11-18T06:15:32;2.25;;;0.75;;
64293;SDS011;50636;45.596;5.258;2022-11-18T06:18:11;4.32;;;1.00;;
64293;SDS011;50636;45.596;5.258;2022-11-18T06:20:43;7.85;;;1.80;;
64293;SDS011;50636;45.596;5.258;2022-11-18T06:23:09;5.13;;;1.85;;
64293;SDS011;50636;45.596;5.258;2022-11-18T06:25:36;3.90;;;0.95;;
64293;SDS011;50636;45.596;5.258;2022-11-18T06:28:04;10.13;;;1.83;;
64293;SDS011;50636;45.596;5.258;2022-11-18T06:30:30;3.03;;;1.15;;
64293;SDS011;50636;45.596;5.258;2022-11-18T06:32:55;5.30;;;1.10;;
64293;SDS011;50636;45.596;5.258;2022-11-18T06:35:21;2.65;;;0.90;;
64293;SDS011;50636;45.596;5.258;2022-11-18T06:37:47;7.78;;;2.00;;
64293;SDS011;50636;45.596;5.258;2022-11-18T06:40:12;4.88;;;0.80;;
64293;SDS011;50636;45.596;5.258;2022-11-18T06:42:38;4.95;;;1.10;;
64293;SDS011;50636;45.596;5.258;2022-11-18T06:45:22;9.45;;;1.45;;
64293;SDS011;50636;45.596;5.258;2022-11-18T06:47:48;3.83;;;1.27;;
64293;SDS011;50636;45.596;5.258;2022-11-18T06:50:14;8.60;;;2.00;;
64293;SDS011;50636;45.596;5.258;2022-11-18T06:52:40;8.50;;;2.78;;
64293;SDS011;50636;45.596;5.258;2022-11-18T06:55:05;9.35;;;1.98;;
64293;SDS011;50636;45.596;5.258;2022-11-18T06:57:32;5.85;;;2.20;;
64293;SDS011;50636;45.596;5.258;2022-11-18T06:59:58;7.88;;;1.75;;
64293;SDS011;50636;45.596;5.258;2022-11-18T07:02:24;13.48;;;2.40;;
64293;SDS011;50636;45.596;5.258;2022-11-18T07:04:50;4.78;;;1.27;;
64293;SDS011;50636;45.596;5.258;2022-11-18T07:07:16;10.43;;;1.73;;
64293;SDS011;50636;45.596;5.258;2022-11-18T07:09:41;5.88;;;1.20;;
64293;SDS011;50636;45.596;5.258;2022-11-18T07:12:07;3.13;;;1.35;;
64293;SDS011;50636;45.596;5.258;2022-11-18T07:14:33;9.70;;;1.45;;
64293;SDS011;50636;45.596;5.258;2022-11-18T07:16:58;4.35;;;1.40;;
64293;SDS011;50636;45.596;5.258;2022-11-18T07:19:24;9.20;;;2.30;;
64293;SDS011;50636;45.596;5.258;2022-11-18T07:21:50;17.83;;;2.92;;
64293;SDS011;50636;45.596;5.258;2022-11-18T07:24:16;19.20;;;3.20;;
64293;SDS011;50636;45.596;5.258;2022-11-18T07:26:41;17.45;;;5.03;;
64293;SDS011;50636;45.596;5.258;2022-11-18T07:29:08;11.50;;;3.53;;
64293;SDS011;50636;45.596;5.258;2022-11-18T07:31:34;16.80;;;3.60;;
64293;SDS011;50636;45.596;5.258;2022-11-18T07:34:03;11.07;;;3.40;;
64293;SDS011;50636;45.596;5.258;2022-11-18T07:36:29;9.70;;;2.60;;
64293;SDS011;50636;45.596;5.258;2022-11-18T07:38:57;10.35;;;3.58;;
64293;SDS011;50636;45.596;5.258;2022-11-18T07:41:24;30.15;;;3.30;;
64293;SDS011;50636;45.596;5.258;2022-11-18T07:43:53;20.42;;;3.22;;
64293;SDS011;50636;45.596;5.258;2022-11-18T07:48:48;13.80;;;3.38;;
64293;SDS011;50636;45.596;5.258;2022-11-18T07:51:16;9.13;;;3.08;;
64293;SDS011;50636;45.596;5.258;2022-11-18T07:53:43;9.40;;;3.47;;
64293;SDS011;50636;45.596;5.258;2022-11-18T07:56:09;13.90;;;3.60;;
64293;SDS011;50636;45.596;5.258;2022-11-18T07:58:36;9.38;;;3.05;;
64293;SDS011;50636;45.596;5.258;2022-11-18T08:01:36;9.23;;;2.83;;
64293;SDS011;50636;45.596;5.258;2022-11-18T08:03:55;4.55;;;2.55;;
64293;SDS011;50636;45.596;5.258;2022-11-18T08:06:21;7.72;;;2.67;;
64293;SDS011;50636;45.596;5.258;2022-11-18T08:08:48;7.85;;;3.10;;
64293;SDS011;50636;45.596;5.258;2022-11-18T08:11:17;10.10;;;3.03;;
64293;SDS011;50636;45.596;5.258;2022-11-18T08:13:44;5.78;;;2.50;;
64293;SDS011;50636;45.596;5.258;2022-11-18T08:16:13;9.70;;;3.00;;
64293;SDS011;50636;45.596;5.258;2022-11-18T08:18:41;11.80;;;2.50;;
64293;SDS011;50636;45.596;5.258;2022-11-18T08:21:08;18.67;;;2.78;;
64293;SDS011;50636;45.596;5.258;2022-11-18T08:23:34;12.65;;;1.65;;
64293;SDS011;50636;45.596;5.258;2022-11-18T08:26:00;11.73;;;2.45;;
64293;SDS011;50636;45.596;5.258;2022-11-18T08:28:31;11.27;;;2.05;;
64293;SDS011;50636;45.596;5.258;2022-11-18T08:30:57;6.72;;;1.42;;
64293;SDS011;50636;45.596;5.258;2022-11-18T08:33:23;5.03;;;1.30;;
64293;SDS011;50636;45.596;5.258;2022-11-18T08:35:49;9.18;;;1.25;;
64293;SDS011;50636;45.596;5.258;2022-11-18T08:38:14;3.00;;;0.90;;
64293;SDS011;50636;45.596;5.258;2022-11-18T08:40:40;4.82;;;1.20;;
64293;SDS011;50636;45.596;5.258;2022-11-18T08:43:11;11.75;;;1.30;;
64293;SDS011;50636;45.596;5.258;2022-11-18T08:45:38;17.38;;;1.95;;
64293;SDS011;50636;45.596;5.258;2022-11-18T08:48:04;7.18;;;1.95;;
64293;SDS011;50636;45.596;5.258;2022-11-18T08:50:30;11.70;;;2.20;;
64293;SDS011;50636;45.596;5.258;2022-11-18T08:52:56;20.73;;;1.67;;
64293;SDS011;50636;45.596;5.258;2022-11-18T08:55:22;7.55;;;1.48;;
64293;SDS011;50636;45.596;5.258;2022-11-18T08:57:47;14.02;;;1.92;;
64293;SDS011;50636;45.596;5.258;2022-11-18T09:00:14;12.75;;;1.55;;
64293;SDS011;50636;45.596;5.258;2022-11-18T09:02:40;47.50;;;2.88;;
64293;SDS011;50636;45.596;5.258;2022-11-18T09:05:06;14.82;;;2.28;;
64293;SDS011;50636;45.596;5.258;2022-11-18T09:07:32;17.52;;;2.30;;
64293;SDS011;50636;45.596;5.258;2022-11-18T09:09:58;8.25;;;1.45;;
64293;SDS011;50636;45.596;5.258;2022-11-18T09:12:23;25.25;;;3.17;;
64293;SDS011;50636;45.596;5.258;2022-11-18T09:14:49;11.00;;;1.92;;
64293;SDS011;50636;45.596;5.258;2022-11-18T09:17:15;19.17;;;2.08;;
64293;SDS011;50636;45.596;5.258;2022-11-18T09:19:40;19.45;;;2.55;;
64293;SDS011;50636;45.596;5.258;2022-11-18T09:22:07;12.68;;;2.17;;
64293;SDS011;50636;45.596;5.258;2022-11-18T09:24:33;10.52;;;1.48;;
64293;SDS011;50636;45.596;5.258;2022-11-18T09:27:01;11.00;;;1.90;;
64293;SDS011;50636;45.596;5.258;2022-11-18T09:29:29;7.93;;;1.80;;
64293;SDS011;50636;45.596;5.258;2022-11-18T09:31:55;8.88;;;1.27;;
64293;SDS011;50636;45.596;5.258;2022-11-18T09:34:21;5.53;;;1.33;;
64293;SDS011;50636;45.596;5.258;2022-11-18T09:36:47;15.85;;;3.80;;
64293;SDS011;50636;45.596;5.258;2022-11-18T09:39:13;7.78;;;1.73;;
64293;SDS011;50636;45.596;5.258;2022-11-18T09:41:46;20.83;;;5.93;;
64293;SDS011;50636;45.596;5.258;2022-11-18T09:47:09;13.55;;;2.22;;
64293;SDS011;50636;45.596;5.258;2022-11-18T09:49:44;13.32;;;2.47;;
64293;SDS011;50636;45.596;5.258;2022-11-18T09:54:52;10.27;;;2.22;;
64293;SDS011;50636;45.596;5.258;2022-11-18T09:57:19;4.93;;;1.80;;
64293;SDS011;50636;45.596;5.258;2022-11-18T10:00:17;13.10;;;5.00;;
64293;SDS011;50636;45.596;5.258;2022-11-18T10:05:47;15.35;;;2.53;;
64293;SDS011;50636;45.596;5.258;2022-11-18T10:10:59;58.55;;;6.85;;
64293;SDS011;50636;45.596;5.258;2022-11-18T10:13:30;18.88;;;4.07;;
64293;SDS011;50636;45.596;5.258;2022-11-18T10:22:25;17.20;;;2.38;;
64293;SDS011;50636;45.596;5.258;2022-11-18T10:25:15;21.48;;;2.53;;
64293;SDS011;50636;45.596;5.258;2022-11-18T10:27:43;12.83;;;1.60;;
64293;SDS011;50636;45.596;5.258;2022-11-18T10:30:11;7.40;;;1.20;;
64293;SDS011;50636;45.596;5.258;2022-11-18T10:32:51;2.85;;;1.20;;
64293;SDS011;50636;45.596;5.258;2022-11-18T10:35:23;11.23;;;2.40;;
64293;SDS011;50636;45.596;5.258;2022-11-18T10:38:02;5.20;;;1.30;;
64293;SDS011;50636;45.596;5.258;2022-11-18T10:40:46;5.43;;;2.42;;
64293;SDS011;50636;45.596;5.258;2022-11-18T10:46:23;6.85;;;1.30;;
64293;SDS011;50636;45.596;5.258;2022-11-18T10:49:13;11.43;;;2.00;;
64293;SDS011;50636;45.596;5.258;2022-11-18T10:51:47;5.55;;;1.63;;
64293;SDS011;50636;45.596;5.258;2022-11-18T10:54:29;15.98;;;2.20;;
64293;SDS011;50636;45.596;5.258;2022-11-18T10:56:55;11.30;;;2.13;;
64293;SDS011;50636;45.596;5.258;2022-11-18T10:59:29;14.85;;;2.45;;
64293;SDS011;50636;45.596;5.258;2022-11-18T11:02:13;19.33;;;4.32;;
64293;SDS011;50636;45.596;5.258;2022-11-18T11:04:55;12.63;;;1.73;;
64293;SDS011;50636;45.596;5.258;2022-11-18T11:07:24;9.57;;;2.10;;
64293;SDS011;50636;45.596;5.258;2022-11-18T11:12:47;9.23;;;1.67;;
64293;SDS011;50636;45.596;5.258;2022-11-18T11:15:26;20.00;;;2.40;;
64293;SDS011;50636;45.596;5.258;2022-11-18T11:18:05;14.05;;;1.60;;
64293;SDS011;50636;45.596;5.258;2022-11-18T11:20:56;10.00;;;2.05;;
64293;SDS011;50636;45.596;5.258;2022-11-18T11:23:22;6.63;;;1.50;;
64293;SDS011;50636;45.596;5.258;2022-11-18T11:28:34;9.35;;;1.60;;
64293;SDS011;50636;45.596;5.258;2022-11-18T11:31:25;11.27;;;2.17;;
64293;SDS011;50636;45.596;5.258;2022-11-18T11:34:09;6.88;;;1.23;;
64293;SDS011;50636;45.596;5.258;2022-11-18T11:40:02;15.70;;;2.90;;
64293;SDS011;50636;45.596;5.258;2022-11-18T11:51:34;8.57;;;1.95;;
64293;SDS011;50636;45.596;5.258;2022-11-18T11:54:19;9.75;;;1.92;;
64293;SDS011;50636;45.596;5.258;2022-11-18T11:56:57;5.57;;;1.20;;
64293;SDS011;50636;45.596;5.258;2022-11-18T12:04:59;5.63;;;1.42;;
64293;SDS011;50636;45.596;5.258;2022-11-18T12:07:46;5.88;;;1.75;;
64293;SDS011;50636;45.596;5.258;2022-11-18T12:10:23;6.82;;;1.35;;
64293;SDS011;50636;45.596;5.258;2022-11-18T12:18:56;10.82;;;1.73;;
64293;SDS011;50636;45.596;5.258;2022-11-18T12:26:43;3.13;;;0.82;;
64293;SDS011;50636;45.596;5.258;2022-11-18T12:31:45;2.80;;;0.73;;
64293;SDS011;50636;45.596;5.258;2022-11-18T12:36:47;3.58;;;0.75;;
64293;SDS011;50636;45.596;5.258;2022-11-18T12:41:55;4.50;;;0.82;;
64293;SDS011;50636;45.596;5.258;2022-11-18T12:44:44;2.97;;;1.10;;
64293;SDS011;50636;45.596;5.258;2022-11-18T12:47:12;2.80;;;0.75;;
64293;SDS011;50636;45.596;5.258;2022-11-18T12:54:57;5.88;;;1.23;;
64293;SDS011;50636;45.596;5.258;2022-11-18T12:57:29;11.55;;;2.08;;
64293;SDS011;50636;45.596;5.258;2022-11-18T12:59:58;4.55;;;0.75;;
64293;SDS011;50636;45.596;5.258;2022-11-18T13:02:49;4.68;;;1.35;;
64293;SDS011;50636;45.596;5.258;2022-11-18T13:05:23;4.72;;;1.42;;
64293;SDS011;50636;45.596;5.258;2022-11-18T13:08:10;3.67;;;1.00;;
64293;SDS011;50636;45.596;5.258;2022-11-18T13:11:01;5.30;;;1.20;;
64293;SDS011;50636;45.596;5.258;2022-11-18T13:13:44;6.35;;;1.05;;
64293;SDS011;50636;45.596;5.258;2022-11-18T13:16:17;6.05;;;0.90;;
64293;SDS011;50636;45.596;5.258;2022-11-18T13:19:04;4.65;;;0.80;;
64293;SDS011;50636;45.596;5.258;2022-11-18T13:21:30;8.20;;;1.45;;
64293;SDS011;50636;45.596;5.258;2022-11-18T13:24:15;6.75;;;1.20;;
64293;SDS011;50636;45.596;5.258;2022-11-18T13:26:44;7.38;;;1.15;;
64293;SDS011;50636;45.596;5.258;2022-11-18T13:29:24;15.00;;;2.05;;
64293;SDS011;50636;45.596;5.258;2022-11-18T13:35:37;9.45;;;1.45;;
64293;SDS011;50636;45.596;5.258;2022-11-18T13:40:29;10.75;;;6.85;;
64293;SDS011;50636;45.596;5.258;2022-11-18T13:43:08;11.05;;;2.70;;
64293;SDS011;50636;45.596;5.258;2022-11-18T13:45:35;11.65;;;2.53;;
64293;SDS011;50636;45.596;5.258;2022-11-18T13:48:04;4.82;;;1.20;;
64293;SDS011;50636;45.596;5.258;2022-11-18T13:50:38;6.75;;;1.00;;
64293;SDS011;50636;45.596;5.258;2022-11-18T13:55:55;7.30;;;0.98;;
64293;SDS011;50636;45.596;5.258;2022-11-18T14:06:27;11.05;;;1.00;;
64293;SDS011;50636;45.596;5.258;2022-11-18T14:11:40;9.32;;;0.90;;
64293;SDS011;50636;45.596;5.258;2022-11-18T14:14:11;2.58;;;1.00;;
64293;SDS011;50636;45.596;5.258;2022-11-18T14:16:52;10.27;;;1.30;;
64293;SDS011;50636;45.596;5.258;2022-11-18T14:19:51;4.57;;;0.80;;
64293;SDS011;50636;45.596;5.258;2022-11-18T14:22:12;19.13;;;2.35;;
64293;SDS011;50636;45.596;5.258;2022-11-18T14:24:43;14.68;;;1.10;;
64293;SDS011;50636;45.596;5.258;2022-11-18T14:27:38;21.60;;;3.75;;
64293;SDS011;50636;45.596;5.258;2022-11-18T14:30:25;25.48;;;3.33;;
64293;SDS011;50636;45.596;5.258;2022-11-18T14:35:37;11.98;;;1.77;;
64293;SDS011;50636;45.596;5.258;2022-11-18T14:38:47;18.63;;;1.95;;
64293;SDS011;50636;45.596;5.258;2022-11-18T14:41:08;12.23;;;1.08;;
64293;SDS011;50636;45.596;5.258;2022-11-18T14:43:36;8.50;;;1.30;;
64293;SDS011;50636;45.596;5.258;2022-11-18T14:46:02;6.45;;;1.02;;
64293;SDS011;50636;45.596;5.258;2022-11-18T14:48:37;12.10;;;1.10;;
64293;SDS011;50636;45.596;5.258;2022-11-18T14:51:02;13.13;;;1.23;;
64293;SDS011;50636;45.596;5.258;2022-11-18T14:53:28;8.80;;;1.10;;
64293;SDS011;50636;45.596;5.258;2022-11-18T14:55:55;12.10;;;1.50;;
64293;SDS011;50636;45.596;5.258;2022-11-18T14:58:22;9.68;;;1.40;;
64293;SDS011;50636;45.596;5.258;2022-11-18T15:00:48;9.75;;;1.55;;
64293;SDS011;50636;45.596;5.258;2022-11-18T15:03:14;11.25;;;1.83;;
64293;SDS011;50636;45.596;5.258;2022-11-18T15:05:40;8.93;;;2.55;;
64293;SDS011;50636;45.596;5.258;2022-11-18T15:08:06;4.72;;;0.95;;
64293;SDS011;50636;45.596;5.258;2022-11-18T15:10:32;6.90;;;0.98;;
64293;SDS011;50636;45.596;5.258;2022-11-18T15:12:59;11.27;;;1.63;;
64293;SDS011;50636;45.596;5.258;2022-11-18T15:15:24;12.20;;;2.17;;
64293;SDS011;50636;45.596;5.258;2022-11-18T15:17:51;14.32;;;1.40;;
64293;SDS011;50636;45.596;5.258;2022-11-18T15:20:17;7.47;;;1.17;;
64293;SDS011;50636;45.596;5.258;2022-11-18T15:22:45;6.13;;;1.30;;
64293;SDS011;50636;45.596;5.258;2022-11-18T15:25:11;7.97;;;1.67;;
64293;SDS011;50636;45.596;5.258;2022-11-18T15:27:37;14.27;;;3.40;;
64293;SDS011;50636;45.596;5.258;2022-11-18T15:30:03;12.50;;;2.80;;
64293;SDS011;50636;45.596;5.258;2022-11-18T15:32:30;5.60;;;1.38;;
64293;SDS011;50636;45.596;5.258;2022-11-18T15:34:55;7.28;;;1.20;;
64293;SDS011;50636;45.596;5.258;2022-11-18T15:37:21;8.02;;;1.42;;
64293;SDS011;50636;45.596;5.258;2022-11-18T15:39:47;6.93;;;1.40;;
64293;SDS011;50636;45.596;5.258;2022-11-18T15:42:18;7.32;;;1.33;;
64293;SDS011;50636;45.596;5.258;2022-11-18T15:44:44;2.92;;;1.05;;
64293;SDS011;50636;45.596;5.258;2022-11-18T15:47:10;6.75;;;1.10;;
64293;SDS011;50636;45.596;5.258;2022-11-18T15:49:36;5.38;;;1.20;;
64293;SDS011;50636;45.596;5.258;2022-11-18T15:52:01;6.50;;;2.42;;
64293;SDS011;50636;45.596;5.258;2022-11-18T15:54:27;8.13;;;2.35;;
64293;SDS011;50636;45.596;5.258;2022-11-18T15:56:53;6.40;;;2.13;;
64293;SDS011;50636;45.596;5.258;2022-11-18T15:59:19;6.82;;;1.70;;
64293;SDS011;50636;45.596;5.258;2022-11-18T16:01:45;8.43;;;1.65;;
64293;SDS011;50636;45.596;5.258;2022-11-18T16:04:14;5.05;;;1.90;;
64293;SDS011;50636;45.596;5.258;2022-11-18T16:06:41;16.50;;;3.22;;
64293;SDS011;50636;45.596;5.258;2022-11-18T16:09:10;8.60;;;2.28;;
64293;SDS011;50636;45.596;5.258;2022-11-18T16:11:37;8.93;;;3.03;;
64293;SDS011;50636;45.596;5.258;2022-11-18T16:14:21;7.55;;;2.58;;
64293;SDS011;50636;45.596;5.258;2022-11-18T16:16:48;6.18;;;3.03;;
64293;SDS011;50636;45.596;5.258;2022-11-18T16:19:17;12.20;;;2.42;;
64293;SDS011;50636;45.596;5.258;2022-11-18T16:21:45;8.10;;;3.78;;
64293;SDS011;50636;45.596;5.258;2022-11-18T16:24:17;12.15;;;3.50;;
64293;SDS011;50636;45.596;5.258;2022-11-18T16:26:45;9.98;;;3.58;;
64293;SDS011;50636;45.596;5.258;2022-11-18T16:29:11;10.73;;;4.45;;
64293;SDS011;50636;45.596;5.258;2022-11-18T16:31:39;6.10;;;2.38;;
64293;SDS011;50636;45.596;5.258;2022-11-18T16:36:31;6.32;;;2.58;;
64293;SDS011;50636;45.596;5.258;2022-11-18T16:38:57;6.22;;;3.20;;
64293;SDS011;50636;45.596;5.258;2022-11-18T16:41:27;7.68;;;2.30;;
64293;SDS011;50636;45.596;5.258;2022-11-18T16:43:55;14.05;;;2.75;;
64293;SDS011;50636;45.596;5.258;2022-11-18T16:46:23;7.93;;;2.60;;
64293;SDS011;50636;45.596;5.258;2022-11-18T16:48:49;15.45;;;4.28;;
64293;SDS011;50636;45.596;5.258;2022-11-18T16:53:48;11.65;;;4.07;;
64293;SDS011;50636;45.596;5.258;2022-11-18T16:56:19;10.85;;;4.60;;
64293;SDS011;50636;45.596;5.258;2022-11-18T16:58:46;13.13;;;4.38;;
64293;SDS011;50636;45.596;5.258;2022-11-18T17:01:12;9.93;;;4.07;;
64293;SDS011;50636;45.596;5.258;2022-11-18T17:03:38;8.23;;;2.80;;